sensor_id;sensor_type;location;lat;lon;timestamp;P1;durP1;ratioP1;P2;durP2;ratioP2
1523;SDS011;755;53.658;10.118;2022-12-18T00:05:14;32.22;;;11.00;;
1523;SDS011;755;53.658;10.118;2022-12-18T00:15:16;37.65;;;11.60;;
1523;SDS011;755;53.658;10.118;2022-12-18T00:25:20;36.95;;;13.68;;
1523;SDS011;755;53.658;10.118;2022-12-18T00:35:23;29.30;;;12.55;;
1523;SDS011;755;53.658;10.118;2022-12-18T00:45:28;28.27;;;11.73;;
1523;SDS011;755;53.658;10.118;2022-12-18T00:55:31;37.78;;;11.60;;
1523;SDS011;755;53.658;10.118;2022-12-18T01:05:38;30.77;;;10.43;;
1523;SDS011;755;53.658;10.118;2022-12-18T01:15:40;29.13;;;10.57;;
1523;SDS011;755;53.658;10.118;2022-12-18T01:25:50;25.98;;;10.93;;
1523;SDS011;755;53.658;10.118;2022-12-18T01:35:52;21.92;;;8.95;;
1523;SDS011;755;53.658;10.118;2022-12-18T01:45:56;31.52;;;10.20;;
1523;SDS011;755;53.658;10.118;2022-12-18T01:56:01;25.20;;;8.90;;
1523;SDS011;755;53.658;10.118;2022-12-18T02:06:07;25.88;;;9.75;;
1523;SDS011;755;53.658;10.118;2022-12-18T02:16:17;26.45;;;9.25;;
1523;SDS011;755;53.658;10.118;2022-12-18T02:26:28;24.50;;;8.02;;
1523;SDS011;755;53.658;10.118;2022-12-18T02:36:37;19.70;;;7.95;;
1523;SDS011;755;53.658;10.118;2022-12-18T02:46:43;25.92;;;8.48;;
1523;SDS011;755;53.658;10.118;2022-12-18T02:56:49;19.80;;;7.10;;
1523;SDS011;755;53.658;10.118;2022-12-18T03:06:57;19.45;;;7.53;;
1523;SDS011;755;53.658;10.118;2022-12-18T03:17:10;16.87;;;7.50;;
1523;SDS011;755;53.658;10.118;2022-12-18T03:27:18;24.80;;;7.50;;
1523;SDS011;755;53.658;10.118;2022-12-18T03:37:23;24.15;;;7.03;;
1523;SDS011;755;53.658;10.118;2022-12-18T03:47:28;26.80;;;8.20;;
1523;SDS011;755;53.658;10.118;2022-12-18T03:57:35;18.58;;;6.65;;
1523;SDS011;755;53.658;10.118;2022-12-18T04:07:40;17.88;;;7.47;;
1523;SDS011;755;53.658;10.118;2022-12-18T04:17:46;21.30;;;7.93;;
1523;SDS011;755;53.658;10.118;2022-12-18T04:27:51;18.13;;;6.78;;
1523;SDS011;755;53.658;10.118;2022-12-18T04:37:53;25.20;;;7.28;;
1523;SDS011;755;53.658;10.118;2022-12-18T04:47:58;18.50;;;5.78;;
1523;SDS011;755;53.658;10.118;2022-12-18T04:58:00;18.83;;;7.68;;
1523;SDS011;755;53.658;10.118;2022-12-18T05:08:04;20.48;;;7.28;;
1523;SDS011;755;53.658;10.118;2022-12-18T05:18:07;12.53;;;6.20;;
1523;SDS011;755;53.658;10.118;2022-12-18T05:28:13;20.17;;;7.45;;
1523;SDS011;755;53.658;10.118;2022-12-18T05:38:19;15.88;;;6.68;;
1523;SDS011;755;53.658;10.118;2022-12-18T05:48:23;16.00;;;6.45;;
1523;SDS011;755;53.658;10.118;2022-12-18T05:58:25;18.27;;;7.83;;
1523;SDS011;755;53.658;10.118;2022-12-18T06:08:29;18.25;;;6.72;;
1523;SDS011;755;53.658;10.118;2022-12-18T06:18:32;21.42;;;8.38;;
1523;SDS011;755;53.658;10.118;2022-12-18T06:28:36;16.90;;;8.13;;
1523;SDS011;755;53.658;10.118;2022-12-18T06:38:40;15.43;;;6.55;;
1523;SDS011;755;53.658;10.118;2022-12-18T06:48:48;19.95;;;7.82;;
1523;SDS011;755;53.658;10.118;2022-12-18T06:58:51;20.83;;;7.90;;
1523;SDS011;755;53.658;10.118;2022-12-18T07:08:55;22.67;;;7.55;;
1523;SDS011;755;53.658;10.118;2022-12-18T07:18:57;21.87;;;8.30;;
1523;SDS011;755;53.658;10.118;2022-12-18T07:29:03;19.20;;;9.13;;
1523;SDS011;755;53.658;10.118;2022-12-18T07:39:06;23.00;;;7.70;;
1523;SDS011;755;53.658;10.118;2022-12-18T07:49:12;24.10;;;8.77;;
1523;SDS011;755;53.658;10.118;2022-12-18T07:59:20;27.35;;;9.15;;
1523;SDS011;755;53.658;10.118;2022-12-18T08:09:26;26.70;;;8.55;;
1523;SDS011;755;53.658;10.118;2022-12-18T08:19:28;29.58;;;9.57;;
1523;SDS011;755;53.658;10.118;2022-12-18T08:29:36;25.77;;;8.10;;
1523;SDS011;755;53.658;10.118;2022-12-18T08:39:38;25.47;;;9.17;;
1523;SDS011;755;53.658;10.118;2022-12-18T08:49:42;27.25;;;9.48;;
1523;SDS011;755;53.658;10.118;2022-12-18T08:59:44;23.47;;;9.50;;
1523;SDS011;755;53.658;10.118;2022-12-18T09:09:48;26.70;;;12.10;;
1523;SDS011;755;53.658;10.118;2022-12-18T09:19:51;30.90;;;10.70;;
1523;SDS011;755;53.658;10.118;2022-12-18T09:29:54;22.23;;;8.25;;
1523;SDS011;755;53.658;10.118;2022-12-18T09:39:57;20.93;;;8.70;;
1523;SDS011;755;53.658;10.118;2022-12-18T09:50:01;23.85;;;8.13;;
1523;SDS011;755;53.658;10.118;2022-12-18T10:00:08;26.85;;;10.70;;
1523;SDS011;755;53.658;10.118;2022-12-18T10:20:40;21.45;;;9.77;;
1523;SDS011;755;53.658;10.118;2022-12-18T10:30:48;21.73;;;9.43;;
1523;SDS011;755;53.658;10.118;2022-12-18T10:40:51;30.63;;;11.37;;
1523;SDS011;755;53.658;10.118;2022-12-18T10:50:57;28.00;;;10.97;;
1523;SDS011;755;53.658;10.118;2022-12-18T11:01:02;31.40;;;8.52;;
1523;SDS011;755;53.658;10.118;2022-12-18T11:11:22;38.40;;;10.25;;
1523;SDS011;755;53.658;10.118;2022-12-18T11:21:31;18.13;;;8.38;;
1523;SDS011;755;53.658;10.118;2022-12-18T11:31:47;16.83;;;6.88;;
1523;SDS011;755;53.658;10.118;2022-12-18T11:41:51;30.00;;;9.60;;
1523;SDS011;755;53.658;10.118;2022-12-18T11:52:20;26.10;;;9.37;;
1523;SDS011;755;53.658;10.118;2022-12-18T12:02:29;27.50;;;9.85;;
1523;SDS011;755;53.658;10.118;2022-12-18T12:12:48;26.15;;;8.80;;
1523;SDS011;755;53.658;10.118;2022-12-18T12:23:04;30.17;;;9.15;;
1523;SDS011;755;53.658;10.118;2022-12-18T12:33:20;29.17;;;9.38;;
1523;SDS011;755;53.658;10.118;2022-12-18T12:43:37;25.90;;;9.75;;
1523;SDS011;755;53.658;10.118;2022-12-18T12:53:44;22.48;;;9.60;;
1523;SDS011;755;53.658;10.118;2022-12-18T13:03:54;26.75;;;10.05;;
1523;SDS011;755;53.658;10.118;2022-12-18T13:14:05;35.92;;;10.05;;
1523;SDS011;755;53.658;10.118;2022-12-18T13:24:24;23.13;;;8.23;;
1523;SDS011;755;53.658;10.118;2022-12-18T13:34:29;35.77;;;11.83;;
1523;SDS011;755;53.658;10.118;2022-12-18T13:44:32;36.60;;;11.85;;
1523;SDS011;755;53.658;10.118;2022-12-18T13:54:41;29.15;;;11.25;;
1523;SDS011;755;53.658;10.118;2022-12-18T14:04:47;31.17;;;11.43;;
1523;SDS011;755;53.658;10.118;2022-12-18T14:14:51;43.38;;;13.43;;
1523;SDS011;755;53.658;10.118;2022-12-18T14:25:13;45.30;;;13.47;;
1523;SDS011;755;53.658;10.118;2022-12-18T14:35:19;43.28;;;13.25;;
1523;SDS011;755;53.658;10.118;2022-12-18T14:45:35;41.00;;;13.32;;
1523;SDS011;755;53.658;10.118;2022-12-18T14:55:44;42.33;;;14.05;;
1523;SDS011;755;53.658;10.118;2022-12-18T15:05:48;39.92;;;13.35;;
1523;SDS011;755;53.658;10.118;2022-12-18T15:15:52;47.25;;;14.73;;
1523;SDS011;755;53.658;10.118;2022-12-18T15:25:57;54.85;;;14.73;;
1523;SDS011;755;53.658;10.118;2022-12-18T15:36:04;53.30;;;15.70;;
1523;SDS011;755;53.658;10.118;2022-12-18T15:46:11;50.10;;;15.57;;
1523;SDS011;755;53.658;10.118;2022-12-18T15:56:16;45.20;;;14.93;;
1523;SDS011;755;53.658;10.118;2022-12-18T16:06:36;44.75;;;13.20;;
1523;SDS011;755;53.658;10.118;2022-12-18T16:16:39;51.85;;;14.15;;
1523;SDS011;755;53.658;10.118;2022-12-18T16:26:42;57.03;;;16.02;;
1523;SDS011;755;53.658;10.118;2022-12-18T16:36:49;45.00;;;15.38;;
1523;SDS011;755;53.658;10.118;2022-12-18T16:46:52;52.30;;;15.00;;
1523;SDS011;755;53.658;10.118;2022-12-18T16:57:05;54.50;;;16.80;;
1523;SDS011;755;53.658;10.118;2022-12-18T17:07:11;56.75;;;17.52;;
1523;SDS011;755;53.658;10.118;2022-12-18T17:17:15;57.20;;;15.85;;
1523;SDS011;755;53.658;10.118;2022-12-18T17:27:18;45.17;;;15.07;;
1523;SDS011;755;53.658;10.118;2022-12-18T17:37:21;46.88;;;14.65;;
1523;SDS011;755;53.658;10.118;2022-12-18T17:47:26;47.07;;;14.57;;
1523;SDS011;755;53.658;10.118;2022-12-18T17:57:34;38.20;;;13.18;;
1523;SDS011;755;53.658;10.118;2022-12-18T18:07:37;36.83;;;13.50;;
1523;SDS011;755;53.658;10.118;2022-12-18T18:17:41;36.88;;;13.30;;
1523;SDS011;755;53.658;10.118;2022-12-18T18:27:49;32.05;;;11.07;;
1523;SDS011;755;53.658;10.118;2022-12-18T18:37:52;38.88;;;12.23;;
1523;SDS011;755;53.658;10.118;2022-12-18T18:47:55;33.97;;;12.73;;
1523;SDS011;755;53.658;10.118;2022-12-18T18:58:05;35.35;;;13.50;;
1523;SDS011;755;53.658;10.118;2022-12-18T19:08:07;40.70;;;11.40;;
1523;SDS011;755;53.658;10.118;2022-12-18T19:18:11;33.95;;;11.80;;
1523;SDS011;755;53.658;10.118;2022-12-18T19:28:15;34.95;;;12.05;;
1523;SDS011;755;53.658;10.118;2022-12-18T19:38:22;35.10;;;12.00;;
1523;SDS011;755;53.658;10.118;2022-12-18T19:48:28;27.50;;;11.32;;
1523;SDS011;755;53.658;10.118;2022-12-18T19:58:32;38.67;;;12.63;;
1523;SDS011;755;53.658;10.118;2022-12-18T20:08:34;31.02;;;12.43;;
1523;SDS011;755;53.658;10.118;2022-12-18T20:18:38;32.20;;;11.85;;
1523;SDS011;755;53.658;10.118;2022-12-18T20:28:41;26.17;;;10.25;;
1523;SDS011;755;53.658;10.118;2022-12-18T20:38:45;34.50;;;10.73;;
1523;SDS011;755;53.658;10.118;2022-12-18T20:48:47;31.45;;;11.27;;
1523;SDS011;755;53.658;10.118;2022-12-18T20:58:54;33.47;;;12.70;;
1523;SDS011;755;53.658;10.118;2022-12-18T21:08:57;41.60;;;13.27;;
1523;SDS011;755;53.658;10.118;2022-12-18T21:19:00;42.45;;;12.88;;
1523;SDS011;755;53.658;10.118;2022-12-18T21:29:03;39.70;;;14.27;;
1523;SDS011;755;53.658;10.118;2022-12-18T21:39:08;43.50;;;15.48;;
1523;SDS011;755;53.658;10.118;2022-12-18T21:49:11;70.38;;;23.83;;
1523;SDS011;755;53.658;10.118;2022-12-18T22:09:21;37.15;;;13.85;;
1523;SDS011;755;53.658;10.118;2022-12-18T22:19:26;41.40;;;13.40;;
1523;SDS011;755;53.658;10.118;2022-12-18T22:29:28;42.10;;;14.27;;
1523;SDS011;755;53.658;10.118;2022-12-18T22:39:50;39.05;;;13.25;;
1523;SDS011;755;53.658;10.118;2022-12-18T22:50:08;41.75;;;13.13;;
1523;SDS011;755;53.658;10.118;2022-12-18T23:00:35;33.08;;;12.57;;
1523;SDS011;755;53.658;10.118;2022-12-18T23:11:27;31.98;;;11.85;;
1523;SDS011;755;53.658;10.118;2022-12-18T23:21:30;36.70;;;12.48;;
1523;SDS011;755;53.658;10.118;2022-12-18T23:31:33;42.95;;;14.02;;
1523;SDS011;755;53.658;10.118;2022-12-18T23:41:38;29.60;;;10.75;;
1523;SDS011;755;53.658;10.118;2022-12-18T23:51:40;37.97;;;12.52;;
